Time;durP1;ratioP1;P1;durP2;ratioP2;P2;SDS_P1;SDS_P2;PMS_P1;PMS_P2;Temp;Humidity;BMP_temperature;BMP_pressure;BME280_temperature;BME280_humidity;BME280_pressure;Samples;Min_cycle;Max_cycle;Signal;HPM_P1;HPM_P2
2022/10/18 00:01:05;;;;;;;506.10;475.07;;;12.60;38.50;;;;;;4991998;28;20189;-69
2022/10/18 00:03:31;;;;;;;542.47;507.73;;;12.50;38.50;;;;;;4991018;28;20839;-69
2022/10/18 00:05:57;;;;;;;507.33;476.47;;;12.60;38.50;;;;;;4992363;28;20417;-69
2022/10/18 00:08:23;;;;;;;669.63;623.43;;;12.60;38.50;;;;;;4992302;28;21020;-69
2022/10/18 00:10:49;;;;;;;668.20;621.37;;;12.60;38.50;;;;;;4992048;28;20344;-69
2022/10/18 00:13:15;;;;;;;400.07;376.40;;;12.50;38.80;;;;;;4992279;28;20933;-69
2022/10/18 00:15:51;;;;;;;430.27;407.53;;;12.60;38.50;;;;;;4992229;28;20417;-69
2022/10/18 00:18:17;;;;;;;572.90;538.90;;;12.60;38.50;;;;;;4990905;28;20674;-69
2022/10/18 00:20:43;;;;;;;676.03;631.90;;;12.60;38.50;;;;;;4992019;28;20953;-69
2022/10/18 00:23:08;;;;;;;573.03;536.07;;;12.60;38.50;;;;;;4992067;28;20565;-70
2022/10/18 00:25:34;;;;;;;778.83;720.37;;;12.50;38.40;;;;;;4992013;28;20185;-70
2022/10/18 00:27:59;;;;;;;853.07;788.60;;;12.40;39.10;;;;;;4990815;28;20591;-70
2022/10/18 00:30:25;;;;;;;774.57;718.10;;;12.40;38.40;;;;;;4991048;28;20180;-69
2022/10/18 00:32:50;;;;;;;694.60;646.03;;;12.30;39.20;;;;;;4995774;28;20557;-69
2022/10/18 00:35:16;;;;;;;764.93;710.83;;;12.40;39.50;;;;;;4995935;28;20185;-69
2022/10/18 00:37:42;;;;;;;733.00;677.53;;;12.40;38.80;;;;;;4995786;28;20292;-69
2022/10/18 00:40:08;;;;;;;638.53;601.80;;;12.40;39.00;;;;;;4995809;28;20179;-69
2022/10/18 00:42:36;;;;;;;950.03;874.87;;;12.40;39.00;;;;;;4995488;28;20634;-69
2022/10/18 00:45:21;;;;;;;648.27;604.80;;;12.20;39.60;;;;;;4995552;28;20459;-71
2022/10/18 00:47:53;;;;;;;507.37;477.27;;;12.20;40.20;;;;;;4995567;28;20510;-71
2022/10/18 00:50:20;;;;;;;639.50;601.63;;;12.30;40.00;;;;;;4995687;28;20408;-70
2022/10/18 00:52:52;;;;;;;946.17;872.03;;;12.30;39.90;;;;;;4995253;28;20407;-70
2022/10/18 00:55:18;;;;;;;622.80;583.87;;;12.20;40.10;;;;;;4995618;28;20415;-71
2022/10/18 00:57:44;;;;;;;576.83;534.83;;;12.20;40.60;;;;;;4995434;28;20436;-70
2022/10/18 01:00:11;;;;;;;654.60;609.87;;;12.20;40.30;;;;;;4995456;28;20421;-70
2022/10/18 01:02:39;;;;;;;917.63;846.10;;;12.30;39.50;;;;;;4995524;28;20506;-71
2022/10/18 01:05:05;;;;;;;528.67;497.77;;;12.20;39.80;;;;;;4995320;28;20966;-70
2022/10/18 01:07:52;;;;;;;571.90;531.47;;;12.20;40.20;;;;;;4995179;28;20469;-71
2022/10/18 01:10:38;;;;;;;316.03;296.53;;;12.30;39.60;;;;;;4996138;28;20823;-71
2022/10/18 01:13:34;;;;;;;907.80;836.80;;;12.30;39.90;;;;;;4995509;28;20412;-71
2022/10/18 01:16:36;;;;;;;598.50;558.73;;;12.20;40.00;;;;;;4994369;28;20520;-70
2022/10/18 01:19:41;;;;;;;670.17;620.30;;;12.30;39.70;;;;;;4995399;28;20754;-70
2022/10/18 01:22:24;;;;;;;743.33;695.73;;;12.30;39.70;;;;;;4994006;28;20483;-70
2022/10/18 01:25:21;;;;;;;414.27;392.47;;;12.40;40.00;;;;;;4994979;28;20994;-70
2022/10/18 01:27:53;;;;;;;759.80;703.87;;;12.40;39.30;;;;;;4983804;28;20480;-70
2022/10/18 01:30:37;;;;;;;520.23;487.43;;;12.50;38.40;;;;;;4995364;28;20455;-70
2022/10/18 01:33:11;;;;;;;598.50;555.03;;;12.50;38.40;;;;;;4994768;28;20442;-71
2022/10/18 01:35:42;;;;;;;907.43;835.53;;;12.50;38.40;;;;;;4994889;28;20412;-71
2022/10/18 01:38:15;;;;;;;1037.53;946.63;;;12.60;37.90;;;;;;4994697;28;20454;-70
2022/10/18 01:40:45;;;;;;;656.70;607.40;;;12.60;38.50;;;;;;4993240;28;20416;-70
2022/10/18 01:43:12;;;;;;;338.43;318.07;;;12.70;37.60;;;;;;4992150;28;20412;-71
2022/10/18 01:45:39;;;;;;;485.90;456.00;;;12.80;37.40;;;;;;4993328;28;20420;-70
2022/10/18 01:48:05;;;;;;;697.70;647.90;;;12.80;37.30;;;;;;4994783;28;20460;-70
2022/10/18 01:50:33;;;;;;;705.87;648.73;;;12.90;36.70;;;;;;4994818;28;20419;-70
2022/10/18 01:52:59;;;;;;;728.93;672.20;;;13.10;35.80;;;;;;4994153;28;20496;-70
2022/10/18 01:55:39;;;;;;;806.43;744.87;;;13.00;35.80;;;;;;4994888;28;20430;-69
2022/10/18 01:58:21;;;;;;;995.70;907.53;;;13.00;36.30;;;;;;4993325;28;20983;-70
2022/10/18 02:00:51;;;;;;;807.30;745.67;;;13.10;36.30;;;;;;4994359;28;20430;-69
2022/10/18 02:03:24;;;;;;;743.87;685.70;;;13.10;35.80;;;;;;4994541;28;20439;-70
2022/10/18 02:06:09;;;;;;;508.97;476.03;;;13.20;35.50;;;;;;4994308;28;20447;-70
2022/10/18 02:09:01;;;;;;;831.33;766.17;;;13.20;35.80;;;;;;4994346;28;20427;-70
2022/10/18 02:11:28;;;;;;;951.70;871.10;;;13.30;34.60;;;;;;4994128;28;20534;-70
2022/10/18 02:13:59;;;;;;;633.23;588.13;;;13.40;34.20;;;;;;4993017;28;20433;-70
2022/10/18 02:16:29;;;;;;;411.13;388.23;;;13.40;35.00;;;;;;4994135;28;20423;-70
2022/10/18 02:19:04;;;;;;;574.57;539.90;;;13.50;34.00;;;;;;4994025;28;20432;-70
2022/10/18 02:21:31;;;;;;;570.50;531.33;;;13.60;33.60;;;;;;4994030;28;20416;-69
2022/10/18 02:23:58;;;;;;;576.10;535.23;;;13.60;34.20;;;;;;4993937;28;20820;-70
2022/10/18 02:26:24;;;;;;;635.00;592.63;;;13.60;34.10;;;;;;4993802;28;20413;-69
2022/10/18 02:28:50;;;;;;;480.17;447.30;;;13.60;34.10;;;;;;4993599;28;20436;-69
2022/10/18 02:31:26;;;;;;;377.67;351.23;;;13.70;33.60;;;;;;4992169;28;20893;-69
2022/10/18 02:34:03;;;;;;;1040.13;948.13;;;13.70;33.60;;;;;;4993683;28;20780;-69
2022/10/18 02:36:45;;;;;;;539.20;503.03;;;13.60;34.20;;;;;;4992406;28;20513;-69
2022/10/18 02:39:15;;;;;;;741.37;688.30;;;13.70;34.20;;;;;;4993673;28;20443;-69
2022/10/18 02:41:41;;;;;;;671.13;620.00;;;13.70;34.20;;;;;;4993335;28;20420;-69
2022/10/18 02:44:07;;;;;;;971.63;902.87;;;13.70;33.70;;;;;;4992016;28;20526;-69
2022/10/18 02:46:33;;;;;;;873.83;808.17;;;13.60;34.20;;;;;;4992117;28;20424;-69
2022/10/18 02:48:58;;;;;;;624.20;581.50;;;13.50;34.10;;;;;;4993449;28;20187;-69
2022/10/18 02:51:24;;;;;;;486.60;452.10;;;13.50;34.00;;;;;;4993028;28;20409;-69
2022/10/18 02:53:50;;;;;;;845.60;778.93;;;13.50;33.40;;;;;;4991793;28;20183;-70
2022/10/18 02:56:15;;;;;;;379.83;356.20;;;13.40;32.70;;;;;;4993383;28;20509;-70
2022/10/18 02:58:41;;;;;;;431.23;403.60;;;13.40;34.00;;;;;;4993211;28;20495;-70
2022/10/18 03:01:06;;;;;;;510.53;476.83;;;13.40;34.00;;;;;;4992823;28;20172;-69
2022/10/18 03:03:32;;;;;;;728.27;674.17;;;13.50;33.70;;;;;;4993131;28;20206;-70
2022/10/18 03:05:58;;;;;;;330.10;311.30;;;13.50;34.10;;;;;;4993017;28;20179;-70
2022/10/18 03:08:23;;;;;;;998.13;917.97;;;13.40;34.00;;;;;;4992957;28;20244;-70
2022/10/18 03:10:49;;;;;;;311.53;290.67;;;13.50;34.10;;;;;;4992771;28;20178;-70
2022/10/18 03:13:15;;;;;;;606.37;566.77;;;13.50;34.50;;;;;;4991666;28;20432;-70
2022/10/18 03:15:41;;;;;;;640.47;594.27;;;13.50;34.00;;;;;;4992860;28;20542;-70
2022/10/18 03:18:07;;;;;;;627.27;581.70;;;13.60;34.10;;;;;;4992763;28;20284;-70
2022/10/18 03:20:33;;;;;;;657.40;608.17;;;13.60;34.20;;;;;;4992739;28;20424;-69
2022/10/18 03:22:58;;;;;;;495.27;459.90;;;13.50;34.00;;;;;;4992550;28;20307;-70
2022/10/18 03:25:24;;;;;;;910.50;843.43;;;13.60;34.10;;;;;;4992680;28;20979;-70
2022/10/18 03:27:50;;;;;;;884.63;818.43;;;13.60;33.70;;;;;;4991410;28;20684;-70
2022/10/18 03:30:15;;;;;;;962.23;885.77;;;13.70;33.50;;;;;;4991366;28;20582;-70
2022/10/18 03:32:41;;;;;;;635.43;591.00;;;13.60;33.60;;;;;;4992453;28;20650;-70
2022/10/18 03:35:08;;;;;;;834.93;773.10;;;13.70;34.20;;;;;;4992582;28;20653;-70
2022/10/18 03:37:34;;;;;;;745.37;693.07;;;13.80;32.70;;;;;;4991303;28;20682;-70
2022/10/18 03:40:03;;;;;;;477.83;450.47;;;13.90;32.40;;;;;;4992581;28;20462;-70
2022/10/18 03:42:28;;;;;;;305.40;283.37;;;13.90;32.50;;;;;;4991003;28;20419;-70
2022/10/18 03:44:54;;;;;;;704.70;650.87;;;14.00;32.70;;;;;;4992574;28;20517;-70
2022/10/18 03:47:19;;;;;;;834.57;773.40;;;13.90;32.70;;;;;;4991171;28;20277;-70
2022/10/18 03:49:45;;;;;;;438.17;409.10;;;14.00;32.40;;;;;;4991920;28;20619;-70
2022/10/18 03:52:10;;;;;;;629.43;587.33;;;14.00;32.20;;;;;;4992908;28;20729;-71
2022/10/18 03:54:36;;;;;;;960.50;882.43;;;14.00;32.40;;;;;;4992986;28;20260;-70
2022/10/18 03:57:02;;;;;;;552.57;513.60;;;14.00;31.80;;;;;;4992473;28;20226;-70
2022/10/18 03:59:27;;;;;;;539.70;504.17;;;14.10;31.20;;;;;;4992377;28;20178;-70
2022/10/18 04:01:53;;;;;;;814.63;753.37;;;14.10;31.90;;;;;;4991994;28;20172;-70
2022/10/18 04:04:19;;;;;;;415.03;387.30;;;14.10;31.70;;;;;;4992209;28;20203;-70
2022/10/18 04:06:44;;;;;;;457.83;429.10;;;14.10;32.30;;;;;;4993453;28;20648;-69
2022/10/18 04:09:10;;;;;;;590.00;550.53;;;14.20;32.20;;;;;;4996485;28;20203;-69
2022/10/18 04:11:35;;;;;;;682.23;626.17;;;14.20;31.70;;;;;;4996084;28;20176;-69
2022/10/18 04:14:01;;;;;;;938.80;863.37;;;14.20;31.60;;;;;;4996228;28;20178;-69
2022/10/18 04:16:26;;;;;;;304.73;286.40;;;13.90;33.00;;;;;;4996205;28;20533;-69
2022/10/18 04:18:52;;;;;;;335.40;315.30;;;14.00;33.50;;;;;;4995869;28;20684;-70
2022/10/18 04:21:18;;;;;;;394.10;368.00;;;14.10;33.60;;;;;;4995947;28;20183;-70
2022/10/18 04:23:45;;;;;;;693.43;641.17;;;14.20;32.40;;;;;;4994722;28;20214;-70
2022/10/18 04:26:11;;;;;;;597.70;553.93;;;14.20;31.80;;;;;;4996020;28;20206;-70
2022/10/18 04:28:38;;;;;;;495.03;461.40;;;14.20;32.20;;;;;;4994892;28;20443;-69
2022/10/18 04:31:04;;;;;;;498.33;464.07;;;14.10;33.00;;;;;;4995740;28;20645;-70
2022/10/18 04:33:30;;;;;;;521.03;485.43;;;14.00;33.70;;;;;;4996301;28;20481;-70
2022/10/18 04:35:55;;;;;;;500.10;467.20;;;14.00;33.90;;;;;;4995886;28;20466;-70
2022/10/18 04:38:21;;;;;;;420.17;396.50;;;14.00;34.30;;;;;;4995688;28;20744;-70
2022/10/18 04:40:47;;;;;;;716.23;662.90;;;13.90;34.40;;;;;;4995527;28;20184;-70
2022/10/18 04:43:12;;;;;;;687.80;636.60;;;14.00;34.10;;;;;;4995761;28;20202;-69
2022/10/18 04:45:38;;;;;;;396.90;371.10;;;14.00;34.50;;;;;;4995688;28;20203;-69
2022/10/18 04:48:04;;;;;;;641.00;597.37;;;14.00;34.50;;;;;;4995820;28;20257;-70
2022/10/18 04:50:29;;;;;;;604.60;566.60;;;14.00;33.70;;;;;;4995664;28;20185;-70
2022/10/18 04:52:55;;;;;;;849.50;793.30;;;14.10;33.50;;;;;;4994340;28;20414;-70
2022/10/18 04:55:21;;;;;;;713.80;664.90;;;14.10;33.20;;;;;;4995552;28;20237;-69
2022/10/18 04:57:46;;;;;;;477.80;444.93;;;14.10;33.00;;;;;;4995567;28;20277;-69
2022/10/18 05:00:12;;;;;;;583.30;544.23;;;14.10;33.00;;;;;;4995523;28;20180;-69
2022/10/18 05:02:38;;;;;;;654.80;609.27;;;14.10;32.80;;;;;;4993858;28;20181;-69
2022/10/18 05:05:04;;;;;;;800.53;742.63;;;14.20;32.30;;;;;;4995298;28;20585;-69
2022/10/18 05:07:30;;;;;;;389.33;362.83;;;14.20;32.60;;;;;;4995188;28;20279;-69
2022/10/18 05:09:55;;;;;;;552.30;510.73;;;14.20;32.40;;;;;;4995260;28;20902;-69
2022/10/18 05:12:21;;;;;;;841.93;785.07;;;14.20;32.80;;;;;;4994914;28;20177;-69
2022/10/18 05:14:47;;;;;;;693.97;647.80;;;14.10;33.10;;;;;;4995855;28;20680;-72
2022/10/18 05:17:13;;;;;;;787.60;733.23;;;14.10;33.60;;;;;;4995944;28;20258;-70
2022/10/18 05:19:38;;;;;;;650.90;603.53;;;14.00;34.10;;;;;;4996483;28;20968;-71
2022/10/18 05:22:04;;;;;;;875.60;808.77;;;14.00;34.50;;;;;;4995753;28;20505;-70
2022/10/18 05:24:29;;;;;;;985.63;908.53;;;14.00;34.50;;;;;;4996146;28;20589;-71
2022/10/18 05:26:55;;;;;;;530.00;493.67;;;14.00;34.50;;;;;;4996371;28;20201;-71
2022/10/18 05:29:21;;;;;;;826.43;760.47;;;14.00;34.50;;;;;;4995213;28;20187;-71
2022/10/18 05:31:48;;;;;;;936.43;869.43;;;14.00;33.50;;;;;;4996095;28;20416;-70
2022/10/18 05:34:13;;;;;;;841.97;777.87;;;14.00;33.60;;;;;;4993419;28;20188;-70
2022/10/18 05:36:39;;;;;;;726.30;672.77;;;14.00;33.50;;;;;;4994922;28;20477;-70
2022/10/18 05:39:05;;;;;;;814.40;751.40;;;13.90;33.90;;;;;;4994889;28;20197;-69
2022/10/18 05:41:31;;;;;;;704.40;661.33;;;13.90;33.40;;;;;;4994566;28;20192;-70
2022/10/18 05:43:57;;;;;;;761.23;710.80;;;13.90;33.30;;;;;;4994938;28;20866;-69
2022/10/18 05:46:22;;;;;;;574.07;532.93;;;13.90;33.80;;;;;;4994594;28;20433;-70
2022/10/18 05:48:51;;;;;;;588.40;544.70;;;13.80;33.90;;;;;;4994738;28;20263;-70
2022/10/18 05:51:17;;;;;;;966.37;890.60;;;13.60;34.10;;;;;;4994612;28;20235;-70
2022/10/18 05:53:43;;;;;;;646.83;602.27;;;13.60;34.10;;;;;;4994566;28;20450;-69
2022/10/18 05:56:10;;;;;;;409.37;384.73;;;13.60;35.00;;;;;;4994575;28;20415;-69
2022/10/18 05:58:36;;;;;;;401.37;375.20;;;13.60;35.10;;;;;;4993153;28;20239;-69
2022/10/18 06:01:03;;;;;;;534.63;494.83;;;13.60;35.50;;;;;;4993006;28;20452;-69
2022/10/18 06:03:29;;;;;;;588.30;550.03;;;13.60;35.40;;;;;;4993266;28;20264;-70
2022/10/18 06:06:06;;;;;;;715.10;663.70;;;13.60;35.30;;;;;;4994378;28;20917;-70
2022/10/18 06:08:32;;;;;;;343.20;322.27;;;13.50;35.90;;;;;;4994259;28;20442;-68
2022/10/18 06:10:58;;;;;;;380.83;358.70;;;13.50;37.50;;;;;;4994006;28;20797;-68
2022/10/18 06:13:24;;;;;;;574.73;537.33;;;13.50;36.80;;;;;;4993984;28;20416;-68
2022/10/18 06:15:54;;;;;;;547.27;514.43;;;13.60;37.00;;;;;;4993939;28;20415;-68
2022/10/18 06:18:19;;;;;;;842.13;775.83;;;13.60;36.80;;;;;;4992758;28;20205;-68
2022/10/18 06:20:45;;;;;;;779.30;721.60;;;13.50;37.00;;;;;;4993954;28;20416;-68
2022/10/18 06:23:10;;;;;;;612.47;568.23;;;13.40;38.70;;;;;;4993951;28;20232;-68
2022/10/18 06:25:36;;;;;;;655.17;611.63;;;13.40;38.20;;;;;;4993803;28;20212;-68
2022/10/18 06:28:04;;;;;;;568.73;531.90;;;13.40;39.30;;;;;;4993468;28;20651;-68
2022/10/18 06:30:29;;;;;;;561.10;525.67;;;13.40;39.20;;;;;;4993697;28;20180;-68
2022/10/18 06:32:59;;;;;;;646.03;604.27;;;13.50;39.30;;;;;;4992356;28;20488;-68
2022/10/18 06:35:27;;;;;;;641.40;596.37;;;13.80;38.00;;;;;;4993771;28;20642;-68
2022/10/18 06:37:53;;;;;;;683.47;636.97;;;14.00;36.90;;;;;;4993706;28;20449;-68
2022/10/18 06:40:18;;;;;;;767.37;707.60;;;14.20;37.10;;;;;;4994303;28;20850;-69
2022/10/18 06:42:45;;;;;;;627.60;586.23;;;14.50;37.90;;;;;;4993490;28;20188;-69
2022/10/18 06:45:11;;;;;;;610.17;567.93;;;14.70;34.20;;;;;;4993638;28;20203;-68
2022/10/18 06:47:36;;;;;;;556.43;518.20;;;14.90;33.30;;;;;;4992189;28;20474;-68
2022/10/18 06:50:02;;;;;;;852.50;783.40;;;15.20;30.30;;;;;;4993617;28;20177;-69
2022/10/18 06:52:27;;;;;;;635.73;594.20;;;15.40;30.00;;;;;;4993144;28;20235;-70
2022/10/18 06:54:53;;;;;;;683.60;629.00;;;15.50;29.30;;;;;;4991542;28;20192;-69
2022/10/18 06:57:19;;;;;;;383.90;357.57;;;15.70;28.70;;;;;;4993046;28;20222;-69
2022/10/18 06:59:45;;;;;;;976.77;887.77;;;15.80;27.70;;;;;;4993730;28;20259;-70
2022/10/18 07:02:16;;;;;;;647.87;593.90;;;16.10;26.80;;;;;;4993573;28;20412;-69
2022/10/18 07:04:42;;;;;;;866.17;792.60;;;16.20;26.80;;;;;;4993599;28;20237;-69
2022/10/18 07:07:07;;;;;;;741.30;683.50;;;16.50;26.30;;;;;;4993084;28;20502;-69
2022/10/18 07:09:33;;;;;;;587.17;538.03;;;16.60;25.90;;;;;;4993307;28;20918;-69
2022/10/18 07:11:58;;;;;;;462.23;426.07;;;16.80;25.60;;;;;;4993223;28;20271;-68
2022/10/18 07:14:24;;;;;;;662.97;610.37;;;17.10;24.90;;;;;;4993418;28;20601;-69
2022/10/18 07:16:49;;;;;;;738.13;674.83;;;17.30;23.60;;;;;;4993144;28;20564;-68
2022/10/18 07:19:15;;;;;;;697.13;641.73;;;17.50;23.00;;;;;;4992881;28;20180;-68
2022/10/18 07:21:40;;;;;;;749.03;680.77;;;17.60;22.50;;;;;;4992786;28;20289;-69
2022/10/18 07:24:06;;;;;;;716.87;662.97;;;17.70;22.90;;;;;;4992902;28;20211;-68
2022/10/18 07:26:33;;;;;;;1153.27;999.90;;;17.90;22.20;;;;;;4991647;28;20199;-69
2022/10/18 07:29:04;;;;;;;796.43;727.07;;;17.90;21.50;;;;;;4991292;28;20188;-68
2022/10/18 07:31:30;;;;;;;902.03;819.27;;;18.00;21.40;;;;;;4989416;28;20438;-68
2022/10/18 07:33:56;;;;;;;637.33;582.23;;;18.10;21.20;;;;;;4993072;28;20442;-68
2022/10/18 07:36:23;;;;;;;1009.30;915.70;;;18.20;21.00;;;;;;5000177;28;20575;-69
2022/10/18 07:38:50;;;;;;;901.63;812.07;;;18.10;20.90;;;;;;4988464;28;20482;-69
2022/10/18 07:41:16;;;;;;;652.93;601.77;;;18.10;21.10;;;;;;4993948;28;20427;-68
2022/10/18 07:43:45;;;;;;;911.17;829.77;;;18.20;21.40;;;;;;5008900;28;20461;-69
2022/10/18 07:46:11;;;;;;;901.77;816.90;;;18.30;21.90;;;;;;5006859;28;20226;-69
2022/10/18 07:48:36;;;;;;;998.30;899.20;;;18.40;20.90;;;;;;4990692;28;20841;-69
2022/10/18 07:51:03;;;;;;;755.10;690.53;;;18.50;19.90;;;;;;4988569;28;20434;-68
2022/10/18 07:53:29;;;;;;;210.37;195.43;;;18.40;20.30;;;;;;4987737;28;20199;-69
2022/10/18 07:56:03;;;;;;;408.50;375.07;;;18.60;20.70;;;;;;4988321;28;20427;-67
2022/10/18 07:58:31;;;;;;;631.07;579.53;;;18.80;20.10;;;;;;4980112;28;20980;-69
2022/10/18 08:00:56;;;;;;;712.23;647.67;;;18.90;19.10;;;;;;4976067;28;20486;-68
2022/10/18 08:03:22;;;;;;;639.57;581.30;;;18.80;18.50;;;;;;4985638;28;20607;-68
2022/10/18 08:05:52;;;;;;;1038.70;937.50;;;18.60;18.80;;;;;;4970018;28;20199;-68
2022/10/18 08:08:19;;;;;;;580.90;525.67;;;18.40;19.50;;;;;;4969286;28;20299;-69
2022/10/18 08:10:44;;;;;;;921.87;827.20;;;18.50;19.30;;;;;;4975014;28;20434;-69
2022/10/18 08:13:10;;;;;;;920.20;828.53;;;18.60;18.50;;;;;;4988099;28;20506;-68
2022/10/18 08:15:35;;;;;;;535.33;486.27;;;18.70;18.70;;;;;;4988418;28;20195;-69
2022/10/18 08:18:01;;;;;;;1068.13;956.50;;;18.80;18.50;;;;;;4985826;28;20212;-69
2022/10/18 08:20:27;;;;;;;1083.13;977.70;;;19.10;18.00;;;;;;4987076;28;20904;-68
2022/10/18 08:22:53;;;;;;;544.53;495.73;;;19.20;17.40;;;;;;4976861;28;20244;-69
2022/10/18 08:25:18;;;;;;;558.67;507.50;;;19.30;17.80;;;;;;4971079;28;20468;-69
2022/10/18 08:27:44;;;;;;;355.37;327.70;;;19.40;16.80;;;;;;4972856;28;20572;-69
2022/10/18 08:30:10;;;;;;;1028.83;918.30;;;19.60;17.00;;;;;;4981314;28;20180;-69
2022/10/18 08:32:35;;;;;;;608.57;550.20;;;19.90;16.50;;;;;;4991730;28;20208;-69
2022/10/18 08:35:01;;;;;;;968.93;861.10;;;20.30;15.40;;;;;;4991810;28;20438;-69
2022/10/18 08:37:26;;;;;;;737.33;666.83;;;20.40;15.40;;;;;;4990816;28;20228;-69
2022/10/18 08:39:52;;;;;;;569.70;520.40;;;20.60;15.80;;;;;;4991737;28;20729;-69
2022/10/18 08:42:25;;;;;;;776.13;698.83;;;20.80;13.80;;;;;;4990919;28;20180;-70
2022/10/18 08:44:52;;;;;;;880.33;789.83;;;20.90;14.20;;;;;;4993882;28;20217;-69
2022/10/18 08:47:29;;;;;;;740.60;671.13;;;20.50;14.60;;;;;;4991853;28;20822;-69
2022/10/18 08:50:11;;;;;;;730.37;660.33;;;20.30;14.80;;;;;;4993081;28;20473;-69
2022/10/18 08:53:12;;;;;;;430.70;393.53;;;20.40;14.90;;;;;;4998643;28;20431;-69
2022/10/18 08:55:47;;;;;;;1164.70;999.90;;;20.30;15.50;;;;;;5013474;28;20418;-69
2022/10/18 08:58:22;;;;;;;279.20;257.40;;;19.90;16.20;;;;;;5009884;28;20443;-69
2022/10/18 09:01:09;;;;;;;452.37;411.07;;;20.00;16.50;;;;;;4990574;28;20423;-69
2022/10/18 09:03:53;;;;;;;1083.30;976.63;;;20.20;16.70;;;;;;4994894;28;21184;-70
2022/10/18 09:06:29;;;;;;;827.27;751.87;;;20.10;16.10;;;;;;4995679;28;20466;-69
2022/10/18 09:09:20;;;;;;;748.97;672.40;;;20.40;16.60;;;;;;4989235;28;20439;-70
2022/10/18 09:12:18;;;;;;;792.03;716.87;;;20.60;15.50;;;;;;4975790;28;20416;-69
2022/10/18 09:15:02;;;;;;;797.37;723.43;;;20.80;16.10;;;;;;4975753;28;20439;-69
2022/10/18 09:17:34;;;;;;;807.47;730.93;;;20.80;15.00;;;;;;4975665;28;20436;-70
2022/10/18 09:20:08;;;;;;;686.33;614.93;;;20.80;15.40;;;;;;4975835;28;20411;-70
2022/10/18 09:22:40;;;;;;;1093.53;975.23;;;20.80;14.80;;;;;;4987111;28;20416;-66
2022/10/18 09:25:13;;;;;;;1122.00;999.50;;;20.80;15.10;;;;;;4975489;28;20483;-68
2022/10/18 09:28:11;;;;;;;1032.13;933.27;;;20.90;15.10;;;;;;4975794;28;20425;-68
2022/10/18 09:31:02;;;;;;;576.93;526.93;;;21.30;14.90;;;;;;4975823;28;20499;-68
2022/10/18 09:33:53;;;;;;;1038.87;941.73;;;21.70;14.00;;;;;;4973156;28;20421;-68
2022/10/18 09:36:34;;;;;;;767.13;700.20;;;22.00;13.50;;;;;;4975404;28;20408;-69
2022/10/18 09:39:11;;;;;;;922.60;843.33;;;22.20;13.20;;;;;;4975456;28;20918;-69
2022/10/18 09:41:51;;;;;;;1094.93;975.27;;;22.20;13.10;;;;;;4975250;28;20416;-68
2022/10/18 09:44:24;;;;;;;878.67;762.30;;;22.20;13.10;;;;;;5004797;28;20820;-68
2022/10/18 09:47:06;;;;;;;832.33;750.43;;;22.20;13.60;;;;;;5014088;28;20453;-69
2022/10/18 09:49:40;;;;;;;795.20;719.70;;;22.20;13.20;;;;;;5013182;28;20462;-69
2022/10/18 09:52:14;;;;;;;601.70;545.70;;;22.20;13.30;;;;;;4997575;28;20665;-69
2022/10/18 09:54:45;;;;;;;839.57;764.63;;;22.30;13.60;;;;;;4992902;28;20944;-69
2022/10/18 09:57:27;;;;;;;771.13;701.07;;;22.40;13.00;;;;;;4994309;28;20532;-68
2022/10/18 09:59:52;;;;;;;751.03;677.93;;;22.40;13.30;;;;;;4993030;28;20431;-68
2022/10/18 10:02:21;;;;;;;928.93;834.13;;;22.50;13.00;;;;;;4992815;28;20439;-69
2022/10/18 10:04:47;;;;;;;607.27;557.63;;;22.40;13.30;;;;;;4992733;28;20227;-69
2022/10/18 10:07:20;;;;;;;645.93;589.73;;;22.50;13.30;;;;;;4993941;28;20838;-69
2022/10/18 10:09:48;;;;;;;695.47;633.37;;;22.40;13.50;;;;;;4994492;28;20415;-69
2022/10/18 10:12:27;;;;;;;825.33;753.70;;;22.00;14.10;;;;;;4992607;28;20427;-70
2022/10/18 10:14:53;;;;;;;824.47;746.23;;;21.90;14.50;;;;;;4993446;28;20443;-69
2022/10/18 10:17:28;;;;;;;991.10;893.83;;;22.00;14.70;;;;;;4993829;28;20466;-69
2022/10/18 10:19:59;;;;;;;633.97;583.47;;;22.00;14.00;;;;;;4994395;28;20214;-70
2022/10/18 10:22:36;;;;;;;746.63;676.67;;;22.10;13.70;;;;;;4994862;28;20451;-69
2022/10/18 10:25:03;;;;;;;616.87;564.03;;;21.90;13.40;;;;;;4973686;28;20468;-69
2022/10/18 10:27:31;;;;;;;873.43;788.23;;;21.90;13.80;;;;;;4974499;28;20456;-68
2022/10/18 10:29:58;;;;;;;570.87;520.47;;;22.00;14.30;;;;;;4974284;28;20441;-69
2022/10/18 10:32:27;;;;;;;747.87;681.63;;;22.10;13.50;;;;;;4993226;28;20428;-69
2022/10/18 10:34:53;;;;;;;558.03;509.23;;;22.20;14.10;;;;;;4993573;28;20450;-69
2022/10/18 10:37:24;;;;;;;636.20;576.60;;;22.20;13.70;;;;;;4993340;28;20480;-69
2022/10/18 10:40:13;;;;;;;1033.40;929.30;;;22.30;13.70;;;;;;4993332;28;20431;-69
2022/10/18 10:43:01;;;;;;;777.80;704.80;;;22.60;13.40;;;;;;4993048;28;20971;-69
2022/10/18 10:45:34;;;;;;;952.90;862.10;;;22.60;12.90;;;;;;4993519;28;20459;-69
2022/10/18 10:48:15;;;;;;;791.13;724.93;;;22.60;12.90;;;;;;4993307;28;20479;-69
2022/10/18 10:51:11;;;;;;;1048.07;950.77;;;22.60;13.00;;;;;;4993563;28;20800;-71
2022/10/18 10:53:49;;;;;;;717.97;659.23;;;22.70;13.40;;;;;;4980674;28;20435;-69
2022/10/18 10:56:27;;;;;;;880.43;805.00;;;22.60;12.30;;;;;;4974491;28;20413;-69
2022/10/18 10:58:56;;;;;;;692.10;634.77;;;22.50;12.90;;;;;;4980245;28;20443;-70
2022/10/18 11:01:31;;;;;;;578.10;527.57;;;22.50;13.80;;;;;;4993068;28;20419;-67
2022/10/18 11:04:03;;;;;;;771.80;698.83;;;22.60;13.40;;;;;;4993436;28;20459;-70
2022/10/18 11:06:47;;;;;;;801.60;734.13;;;22.60;12.40;;;;;;4993589;28;20423;-69
2022/10/18 11:09:29;;;;;;;807.17;722.90;;;22.30;12.60;;;;;;4972602;28;20428;-69
2022/10/18 11:12:36;;;;;;;867.53;783.13;;;22.20;13.20;;;;;;4972017;28;20421;-70
2022/10/18 11:15:09;;;;;;;641.70;582.30;;;22.40;13.50;;;;;;4967244;28;21049;-70
2022/10/18 11:17:50;;;;;;;694.10;629.43;;;22.20;12.90;;;;;;4973852;28;20429;-70
2022/10/18 11:20:20;;;;;;;958.87;859.87;;;22.30;11.90;;;;;;4974314;28;20417;-69
2022/10/18 11:22:48;;;;;;;631.53;571.53;;;22.30;13.00;;;;;;4973745;28;20779;-69
2022/10/18 11:25:15;;;;;;;830.40;752.77;;;22.10;12.60;;;;;;4973398;28;20926;-69
2022/10/18 11:27:53;;;;;;;883.10;800.83;;;21.90;13.40;;;;;;4973676;28;20428;-70
2022/10/18 11:31:05;;;;;;;568.70;520.97;;;21.80;13.30;;;;;;4973420;28;20416;-69
2022/10/18 11:33:51;;;;;;;825.47;751.80;;;21.90;13.40;;;;;;4973671;28;20462;-70
2022/10/18 11:36:39;;;;;;;735.23;664.27;;;22.00;13.10;;;;;;4973634;28;20439;-70
2022/10/18 11:39:24;;;;;;;981.80;892.60;;;22.00;13.40;;;;;;4973474;28;20564;-70
2022/10/18 11:42:01;;;;;;;689.27;621.57;;;21.90;13.00;;;;;;4973242;28;20500;-70
2022/10/18 11:45:03;;;;;;;684.87;630.83;;;21.90;13.40;;;;;;4973258;28;20844;-69
2022/10/18 11:47:52;;;;;;;787.50;706.40;;;22.00;12.30;;;;;;4972861;28;20578;-69
2022/10/18 11:50:59;;;;;;;806.90;724.67;;;22.00;13.10;;;;;;4963077;28;20914;-70
2022/10/18 11:53:41;;;;;;;802.97;732.50;;;22.10;12.10;;;;;;4963096;28;20894;-70
2022/10/18 11:56:26;;;;;;;852.07;765.67;;;22.10;11.70;;;;;;4973414;28;20420;-70
2022/10/18 11:58:57;;;;;;;924.17;839.03;;;22.00;12.70;;;;;;4973068;28;20428;-69
2022/10/18 12:01:38;;;;;;;839.13;758.30;;;22.10;12.90;;;;;;4972737;28;20408;-69
2022/10/18 12:04:14;;;;;;;679.97;619.23;;;22.20;12.10;;;;;;4973028;28;20563;-69
2022/10/18 12:06:43;;;;;;;989.80;887.80;;;22.50;11.30;;;;;;4973282;28;20977;-70
2022/10/18 12:09:15;;;;;;;663.47;606.67;;;22.60;11.00;;;;;;4973090;28;20413;-70
2022/10/18 12:11:51;;;;;;;806.37;731.47;;;22.70;11.30;;;;;;4972824;28;20411;-70
2022/10/18 12:14:29;;;;;;;805.40;735.33;;;22.70;10.40;;;;;;4972962;28;20409;-70
2022/10/18 12:16:59;;;;;;;907.03;820.03;;;22.70;10.50;;;;;;4972962;28;20948;-70
2022/10/18 12:19:31;;;;;;;866.27;776.70;;;22.70;10.50;;;;;;4973047;28;20440;-70
2022/10/18 12:22:20;;;;;;;934.37;845.07;;;22.90;11.20;;;;;;4978550;28;20435;-69
2022/10/18 12:24:45;;;;;;;918.90;834.73;;;23.20;10.50;;;;;;4988099;28;20467;-69
2022/10/18 12:27:14;;;;;;;1095.07;990.73;;;23.50;10.00;;;;;;4990256;28;20498;-69